sensor_id;sensor_type;location;lat;lon;timestamp;P1;P2;P0
64229;PMS5003;50547;49.498;0.092;2023-07-31T00:00:06;7;7;
64229;PMS5003;50547;49.498;0.092;2023-07-31T00:02:36;8;8;
64229;PMS5003;50547;49.498;0.092;2023-07-31T00:05:08;8;8;
64229;PMS5003;50547;49.498;0.092;2023-07-31T00:07:37;8;8;
64229;PMS5003;50547;49.498;0.092;2023-07-31T00:10:06;9;9;
64229;PMS5003;50547;49.498;0.092;2023-07-31T00:12:37;10;10;
64229;PMS5003;50547;49.498;0.092;2023-07-31T00:15:07;8;8;
64229;PMS5003;50547;49.498;0.092;2023-07-31T00:17:37;8;8;
64229;PMS5003;50547;49.498;0.092;2023-07-31T00:20:07;8;8;
64229;PMS5003;50547;49.498;0.092;2023-07-31T00:22:36;8;8;
64229;PMS5003;50547;49.498;0.092;2023-07-31T00:25:06;9;9;
64229;PMS5003;50547;49.498;0.092;2023-07-31T00:27:35;8;8;
64229;PMS5003;50547;49.498;0.092;2023-07-31T00:30:04;8;8;
64229;PMS5003;50547;49.498;0.092;2023-07-31T00:32:34;8;8;
64229;PMS5003;50547;49.498;0.092;2023-07-31T00:35:04;8;8;
64229;PMS5003;50547;49.498;0.092;2023-07-31T00:37:33;8;8;
64229;PMS5003;50547;49.498;0.092;2023-07-31T00:40:02;10;10;
64229;PMS5003;50547;49.498;0.092;2023-07-31T00:42:32;10;10;
64229;PMS5003;50547;49.498;0.092;2023-07-31T00:45:01;10;10;
64229;PMS5003;50547;49.498;0.092;2023-07-31T00:47:30;10;10;
64229;PMS5003;50547;49.498;0.092;2023-07-31T00:49:59;9;9;
64229;PMS5003;50547;49.498;0.092;2023-07-31T00:52:28;10;10;
64229;PMS5003;50547;49.498;0.092;2023-07-31T00:54:57;10;10;
64229;PMS5003;50547;49.498;0.092;2023-07-31T00:57:26;10;10;
64229;PMS5003;50547;49.498;0.092;2023-07-31T00:59:55;9;9;
64229;PMS5003;50547;49.498;0.092;2023-07-31T01:02:24;8;8;
64229;PMS5003;50547;49.498;0.092;2023-07-31T01:04:54;10;10;
64229;PMS5003;50547;49.498;0.092;2023-07-31T01:07:27;8;8;
64229;PMS5003;50547;49.498;0.092;2023-07-31T01:10:04;10;10;
64229;PMS5003;50547;49.498;0.092;2023-07-31T01:12:39;8;8;
64229;PMS5003;50547;49.498;0.092;2023-07-31T01:15:10;9;9;
64229;PMS5003;50547;49.498;0.092;2023-07-31T01:17:39;9;9;
64229;PMS5003;50547;49.498;0.092;2023-07-31T01:20:10;8;8;
64229;PMS5003;50547;49.498;0.092;2023-07-31T01:22:54;9;9;
64229;PMS5003;50547;49.498;0.092;2023-07-31T01:25:44;10;10;
64229;PMS5003;50547;49.498;0.092;2023-07-31T01:28:19;10;10;
64229;PMS5003;50547;49.498;0.092;2023-07-31T01:30:51;10;10;
64229;PMS5003;50547;49.498;0.092;2023-07-31T01:33:23;9;9;
64229;PMS5003;50547;49.498;0.092;2023-07-31T01:35:53;9;9;
64229;PMS5003;50547;49.498;0.092;2023-07-31T01:38:22;9;9;
64229;PMS5003;50547;49.498;0.092;2023-07-31T01:40:52;8;8;
64229;PMS5003;50547;49.498;0.092;2023-07-31T01:43:21;11;11;
64229;PMS5003;50547;49.498;0.092;2023-07-31T01:45:50;10;10;
64229;PMS5003;50547;49.498;0.092;2023-07-31T01:48:19;10;10;
64229;PMS5003;50547;49.498;0.092;2023-07-31T01:50:48;10;10;
64229;PMS5003;50547;49.498;0.092;2023-07-31T01:53:17;10;10;
64229;PMS5003;50547;49.498;0.092;2023-07-31T01:55:46;10;10;
64229;PMS5003;50547;49.498;0.092;2023-07-31T01:58:15;11;11;
64229;PMS5003;50547;49.498;0.092;2023-07-31T02:00:44;10;10;
64229;PMS5003;50547;49.498;0.092;2023-07-31T02:03:13;10;10;
64229;PMS5003;50547;49.498;0.092;2023-07-31T02:05:44;10;10;
64229;PMS5003;50547;49.498;0.092;2023-07-31T02:08:13;10;10;
64229;PMS5003;50547;49.498;0.092;2023-07-31T02:10:42;10;10;
64229;PMS5003;50547;49.498;0.092;2023-07-31T02:13:11;11;11;
64229;PMS5003;50547;49.498;0.092;2023-07-31T02:15:40;10;10;
64229;PMS5003;50547;49.498;0.092;2023-07-31T02:18:09;10;10;
64229;PMS5003;50547;49.498;0.092;2023-07-31T02:20:38;10;10;
64229;PMS5003;50547;49.498;0.092;2023-07-31T02:23:07;10;10;
64229;PMS5003;50547;49.498;0.092;2023-07-31T02:25:36;10;10;
64229;PMS5003;50547;49.498;0.092;2023-07-31T02:28:06;10;10;
64229;PMS5003;50547;49.498;0.092;2023-07-31T02:30:35;10;10;
64229;PMS5003;50547;49.498;0.092;2023-07-31T02:33:04;10;10;
64229;PMS5003;50547;49.498;0.092;2023-07-31T02:35:34;10;10;
64229;PMS5003;50547;49.498;0.092;2023-07-31T02:38:03;10;10;
64229;PMS5003;50547;49.498;0.092;2023-07-31T02:40:32;8;8;
64229;PMS5003;50547;49.498;0.092;2023-07-31T02:43:01;9;9;
64229;PMS5003;50547;49.498;0.092;2023-07-31T02:45:30;10;10;
64229;PMS5003;50547;49.498;0.092;2023-07-31T02:47:59;10;10;
64229;PMS5003;50547;49.498;0.092;2023-07-31T02:50:28;8;8;
64229;PMS5003;50547;49.498;0.092;2023-07-31T02:52:57;10;10;
64229;PMS5003;50547;49.498;0.092;2023-07-31T02:55:26;10;10;
64229;PMS5003;50547;49.498;0.092;2023-07-31T02:57:55;9;9;
64229;PMS5003;50547;49.498;0.092;2023-07-31T03:00:24;9;9;
64229;PMS5003;50547;49.498;0.092;2023-07-31T03:02:53;10;10;
64229;PMS5003;50547;49.498;0.092;2023-07-31T03:05:22;10;10;
64229;PMS5003;50547;49.498;0.092;2023-07-31T03:07:51;10;10;
64229;PMS5003;50547;49.498;0.092;2023-07-31T03:10:20;10;10;
64229;PMS5003;50547;49.498;0.092;2023-07-31T03:12:49;10;10;
64229;PMS5003;50547;49.498;0.092;2023-07-31T03:15:18;10;10;
64229;PMS5003;50547;49.498;0.092;2023-07-31T03:17:47;10;10;
64229;PMS5003;50547;49.498;0.092;2023-07-31T03:20:16;10;10;
64229;PMS5003;50547;49.498;0.092;2023-07-31T03:22:45;10;10;
64229;PMS5003;50547;49.498;0.092;2023-07-31T03:25:14;10;10;
64229;PMS5003;50547;49.498;0.092;2023-07-31T03:27:43;9;9;
64229;PMS5003;50547;49.498;0.092;2023-07-31T03:30:12;10;10;
64229;PMS5003;50547;49.498;0.092;2023-07-31T03:32:41;10;10;
64229;PMS5003;50547;49.498;0.092;2023-07-31T03:35:10;10;10;
64229;PMS5003;50547;49.498;0.092;2023-07-31T03:37:39;10;10;
64229;PMS5003;50547;49.498;0.092;2023-07-31T03:40:08;10;10;
64229;PMS5003;50547;49.498;0.092;2023-07-31T03:42:38;10;10;
64229;PMS5003;50547;49.498;0.092;2023-07-31T03:45:08;10;10;
64229;PMS5003;50547;49.498;0.092;2023-07-31T03:47:37;10;10;
64229;PMS5003;50547;49.498;0.092;2023-07-31T03:50:07;10;10;
64229;PMS5003;50547;49.498;0.092;2023-07-31T03:52:36;11;11;
64229;PMS5003;50547;49.498;0.092;2023-07-31T03:55:05;10;10;
64229;PMS5003;50547;49.498;0.092;2023-07-31T03:57:34;10;10;
64229;PMS5003;50547;49.498;0.092;2023-07-31T04:00:03;11;11;
64229;PMS5003;50547;49.498;0.092;2023-07-31T04:02:33;11;11;
64229;PMS5003;50547;49.498;0.092;2023-07-31T04:05:02;10;10;
64229;PMS5003;50547;49.498;0.092;2023-07-31T04:07:32;10;10;
64229;PMS5003;50547;49.498;0.092;2023-07-31T04:10:01;11;11;
64229;PMS5003;50547;49.498;0.092;2023-07-31T04:12:30;11;11;
64229;PMS5003;50547;49.498;0.092;2023-07-31T04:14:59;10;10;
64229;PMS5003;50547;49.498;0.092;2023-07-31T04:17:28;11;11;
64229;PMS5003;50547;49.498;0.092;2023-07-31T04:19:57;11;11;
64229;PMS5003;50547;49.498;0.092;2023-07-31T04:22:26;11;11;
64229;PMS5003;50547;49.498;0.092;2023-07-31T04:24:55;11;11;
64229;PMS5003;50547;49.498;0.092;2023-07-31T04:27:24;10;10;
64229;PMS5003;50547;49.498;0.092;2023-07-31T04:29:53;11;11;
64229;PMS5003;50547;49.498;0.092;2023-07-31T04:32:22;11;11;
64229;PMS5003;50547;49.498;0.092;2023-07-31T04:34:51;11;11;
64229;PMS5003;50547;49.498;0.092;2023-07-31T04:37:20;11;11;
64229;PMS5003;50547;49.498;0.092;2023-07-31T04:39:49;11;11;
64229;PMS5003;50547;49.498;0.092;2023-07-31T04:42:19;11;11;
64229;PMS5003;50547;49.498;0.092;2023-07-31T04:44:48;11;11;
64229;PMS5003;50547;49.498;0.092;2023-07-31T04:47:17;11;11;
64229;PMS5003;50547;49.498;0.092;2023-07-31T04:49:46;11;11;
64229;PMS5003;50547;49.498;0.092;2023-07-31T04:52:15;11;11;
64229;PMS5003;50547;49.498;0.092;2023-07-31T04:54:44;11;11;
64229;PMS5003;50547;49.498;0.092;2023-07-31T04:57:13;11;11;
64229;PMS5003;50547;49.498;0.092;2023-07-31T04:59:42;13;13;
64229;PMS5003;50547;49.498;0.092;2023-07-31T05:02:11;11;11;
64229;PMS5003;50547;49.498;0.092;2023-07-31T05:04:41;11;11;
64229;PMS5003;50547;49.498;0.092;2023-07-31T05:07:10;11;11;
64229;PMS5003;50547;49.498;0.092;2023-07-31T05:09:39;11;11;
64229;PMS5003;50547;49.498;0.092;2023-07-31T05:12:08;10;10;
64229;PMS5003;50547;49.498;0.092;2023-07-31T05:14:37;13;13;
64229;PMS5003;50547;49.498;0.092;2023-07-31T05:17:06;10;10;
64229;PMS5003;50547;49.498;0.092;2023-07-31T05:19:35;11;11;
64229;PMS5003;50547;49.498;0.092;2023-07-31T05:22:04;10;10;
64229;PMS5003;50547;49.498;0.092;2023-07-31T05:24:33;10;10;
64229;PMS5003;50547;49.498;0.092;2023-07-31T05:27:02;11;11;
64229;PMS5003;50547;49.498;0.092;2023-07-31T05:29:32;11;11;
64229;PMS5003;50547;49.498;0.092;2023-07-31T05:32:01;11;11;
64229;PMS5003;50547;49.498;0.092;2023-07-31T05:34:30;10;10;
64229;PMS5003;50547;49.498;0.092;2023-07-31T05:36:59;10;10;
64229;PMS5003;50547;49.498;0.092;2023-07-31T05:39:28;10;10;
64229;PMS5003;50547;49.498;0.092;2023-07-31T05:41:57;10;10;
64229;PMS5003;50547;49.498;0.092;2023-07-31T05:44:26;10;10;
64229;PMS5003;50547;49.498;0.092;2023-07-31T05:46:54;11;11;
64229;PMS5003;50547;49.498;0.092;2023-07-31T05:49:23;11;11;
64229;PMS5003;50547;49.498;0.092;2023-07-31T05:51:52;10;10;
64229;PMS5003;50547;49.498;0.092;2023-07-31T05:54:21;10;10;
64229;PMS5003;50547;49.498;0.092;2023-07-31T05:56:50;11;11;
64229;PMS5003;50547;49.498;0.092;2023-07-31T05:59:19;11;11;
64229;PMS5003;50547;49.498;0.092;2023-07-31T06:01:48;10;10;
64229;PMS5003;50547;49.498;0.092;2023-07-31T06:04:17;11;11;
64229;PMS5003;50547;49.498;0.092;2023-07-31T06:06:46;11;11;
64229;PMS5003;50547;49.498;0.092;2023-07-31T06:09:15;10;10;
64229;PMS5003;50547;49.498;0.092;2023-07-31T06:11:44;10;10;
64229;PMS5003;50547;49.498;0.092;2023-07-31T06:14:13;11;11;
64229;PMS5003;50547;49.498;0.092;2023-07-31T06:16:42;11;11;
64229;PMS5003;50547;49.498;0.092;2023-07-31T06:19:12;11;11;
64229;PMS5003;50547;49.498;0.092;2023-07-31T06:21:41;10;10;
64229;PMS5003;50547;49.498;0.092;2023-07-31T06:24:10;10;10;
64229;PMS5003;50547;49.498;0.092;2023-07-31T06:26:39;11;11;
64229;PMS5003;50547;49.498;0.092;2023-07-31T06:29:08;10;10;
64229;PMS5003;50547;49.498;0.092;2023-07-31T06:31:37;10;10;
64229;PMS5003;50547;49.498;0.092;2023-07-31T06:34:06;10;10;
64229;PMS5003;50547;49.498;0.092;2023-07-31T06:36:35;11;11;
64229;PMS5003;50547;49.498;0.092;2023-07-31T06:39:04;10;10;
64229;PMS5003;50547;49.498;0.092;2023-07-31T06:41:33;10;10;
64229;PMS5003;50547;49.498;0.092;2023-07-31T06:44:02;11;11;
64229;PMS5003;50547;49.498;0.092;2023-07-31T06:46:31;10;10;
64229;PMS5003;50547;49.498;0.092;2023-07-31T06:49:00;11;11;
64229;PMS5003;50547;49.498;0.092;2023-07-31T06:51:29;10;10;
64229;PMS5003;50547;49.498;0.092;2023-07-31T06:53:58;11;11;
64229;PMS5003;50547;49.498;0.092;2023-07-31T06:56:27;10;10;
64229;PMS5003;50547;49.498;0.092;2023-07-31T06:58:56;10;10;
64229;PMS5003;50547;49.498;0.092;2023-07-31T07:01:25;10;10;
64229;PMS5003;50547;49.498;0.092;2023-07-31T07:03:54;10;10;
64229;PMS5003;50547;49.498;0.092;2023-07-31T07:06:23;10;10;
64229;PMS5003;50547;49.498;0.092;2023-07-31T07:08:52;10;10;
64229;PMS5003;50547;49.498;0.092;2023-07-31T07:11:21;10;10;
64229;PMS5003;50547;49.498;0.092;2023-07-31T07:13:50;10;10;
64229;PMS5003;50547;49.498;0.092;2023-07-31T07:16:19;10;10;
64229;PMS5003;50547;49.498;0.092;2023-07-31T07:18:48;10;10;
64229;PMS5003;50547;49.498;0.092;2023-07-31T07:21:17;10;10;
64229;PMS5003;50547;49.498;0.092;2023-07-31T07:23:46;10;10;
64229;PMS5003;50547;49.498;0.092;2023-07-31T07:26:15;10;10;
64229;PMS5003;50547;49.498;0.092;2023-07-31T07:28:44;10;10;
64229;PMS5003;50547;49.498;0.092;2023-07-31T07:31:13;10;10;
64229;PMS5003;50547;49.498;0.092;2023-07-31T07:33:43;10;10;
64229;PMS5003;50547;49.498;0.092;2023-07-31T07:36:12;10;10;
64229;PMS5003;50547;49.498;0.092;2023-07-31T07:38:41;10;10;
64229;PMS5003;50547;49.498;0.092;2023-07-31T07:41:10;10;10;
64229;PMS5003;50547;49.498;0.092;2023-07-31T07:43:39;10;10;
64229;PMS5003;50547;49.498;0.092;2023-07-31T07:46:08;11;11;
64229;PMS5003;50547;49.498;0.092;2023-07-31T07:48:38;10;10;
64229;PMS5003;50547;49.498;0.092;2023-07-31T07:51:07;10;10;
64229;PMS5003;50547;49.498;0.092;2023-07-31T07:53:36;11;11;
64229;PMS5003;50547;49.498;0.092;2023-07-31T07:56:05;11;11;
64229;PMS5003;50547;49.498;0.092;2023-07-31T07:58:34;11;11;
64229;PMS5003;50547;49.498;0.092;2023-07-31T08:01:03;11;11;
64229;PMS5003;50547;49.498;0.092;2023-07-31T08:03:32;11;11;
64229;PMS5003;50547;49.498;0.092;2023-07-31T08:06:01;10;10;
64229;PMS5003;50547;49.498;0.092;2023-07-31T08:08:30;10;10;
64229;PMS5003;50547;49.498;0.092;2023-07-31T08:10:59;10;10;
64229;PMS5003;50547;49.498;0.092;2023-07-31T08:13:28;10;10;
64229;PMS5003;50547;49.498;0.092;2023-07-31T08:15:58;10;10;
64229;PMS5003;50547;49.498;0.092;2023-07-31T08:18:27;13;13;
64229;PMS5003;50547;49.498;0.092;2023-07-31T08:20:56;11;11;
64229;PMS5003;50547;49.498;0.092;2023-07-31T08:23:25;11;11;
64229;PMS5003;50547;49.498;0.092;2023-07-31T08:25:54;11;11;
64229;PMS5003;50547;49.498;0.092;2023-07-31T08:28:23;10;10;
64229;PMS5003;50547;49.498;0.092;2023-07-31T08:30:52;11;11;
64229;PMS5003;50547;49.498;0.092;2023-07-31T08:33:21;10;10;
64229;PMS5003;50547;49.498;0.092;2023-07-31T08:35:50;10;10;
64229;PMS5003;50547;49.498;0.092;2023-07-31T08:38:19;10;10;
64229;PMS5003;50547;49.498;0.092;2023-07-31T08:40:49;11;11;
64229;PMS5003;50547;49.498;0.092;2023-07-31T08:43:18;10;10;
64229;PMS5003;50547;49.498;0.092;2023-07-31T08:45:49;10;10;
64229;PMS5003;50547;49.498;0.092;2023-07-31T08:48:20;10;10;
64229;PMS5003;50547;49.498;0.092;2023-07-31T08:50:51;10;10;
64229;PMS5003;50547;49.498;0.092;2023-07-31T08:53:21;10;10;
64229;PMS5003;50547;49.498;0.092;2023-07-31T08:55:50;10;10;
64229;PMS5003;50547;49.498;0.092;2023-07-31T08:58:21;10;10;
64229;PMS5003;50547;49.498;0.092;2023-07-31T09:00:52;10;10;
64229;PMS5003;50547;49.498;0.092;2023-07-31T09:03:24;10;10;
64229;PMS5003;50547;49.498;0.092;2023-07-31T09:05:55;10;10;
64229;PMS5003;50547;49.498;0.092;2023-07-31T09:08:25;10;10;
64229;PMS5003;50547;49.498;0.092;2023-07-31T09:10:59;10;10;
64229;PMS5003;50547;49.498;0.092;2023-07-31T09:13:29;10;10;
64229;PMS5003;50547;49.498;0.092;2023-07-31T09:15:59;10;10;
64229;PMS5003;50547;49.498;0.092;2023-07-31T09:18:28;10;10;
64229;PMS5003;50547;49.498;0.092;2023-07-31T09:21:01;10;10;
64229;PMS5003;50547;49.498;0.092;2023-07-31T09:23:46;10;10;
64229;PMS5003;50547;49.498;0.092;2023-07-31T09:26:28;10;10;
64229;PMS5003;50547;49.498;0.092;2023-07-31T09:28:58;10;10;
64229;PMS5003;50547;49.498;0.092;2023-07-31T09:31:31;10;10;
64229;PMS5003;50547;49.498;0.092;2023-07-31T09:34:01;10;10;
64229;PMS5003;50547;49.498;0.092;2023-07-31T09:36:30;10;10;
64229;PMS5003;50547;49.498;0.092;2023-07-31T09:39:02;10;10;
64229;PMS5003;50547;49.498;0.092;2023-07-31T09:41:31;9;9;
64229;PMS5003;50547;49.498;0.092;2023-07-31T09:44:05;10;10;
64229;PMS5003;50547;49.498;0.092;2023-07-31T09:46:34;10;10;
64229;PMS5003;50547;49.498;0.092;2023-07-31T09:49:05;10;10;
64229;PMS5003;50547;49.498;0.092;2023-07-31T09:51:35;10;10;
64229;PMS5003;50547;49.498;0.092;2023-07-31T09:54:12;10;10;
64229;PMS5003;50547;49.498;0.092;2023-07-31T09:56:43;10;10;
64229;PMS5003;50547;49.498;0.092;2023-07-31T09:59:14;10;10;
64229;PMS5003;50547;49.498;0.092;2023-07-31T10:01:45;10;10;
64229;PMS5003;50547;49.498;0.092;2023-07-31T10:04:15;9;9;
64229;PMS5003;50547;49.498;0.092;2023-07-31T10:06:46;9;9;
64229;PMS5003;50547;49.498;0.092;2023-07-31T10:09:18;10;10;
64229;PMS5003;50547;49.498;0.092;2023-07-31T10:11:51;10;10;
64229;PMS5003;50547;49.498;0.092;2023-07-31T10:14:28;10;10;
64229;PMS5003;50547;49.498;0.092;2023-07-31T10:16:59;10;10;
64229;PMS5003;50547;49.498;0.092;2023-07-31T10:19:28;9;9;
64229;PMS5003;50547;49.498;0.092;2023-07-31T10:21:59;10;10;
64229;PMS5003;50547;49.498;0.092;2023-07-31T10:24:29;10;10;
64229;PMS5003;50547;49.498;0.092;2023-07-31T10:26:59;8;8;
64229;PMS5003;50547;49.498;0.092;2023-07-31T10:29:30;8;8;
64229;PMS5003;50547;49.498;0.092;2023-07-31T10:31:59;10;10;
64229;PMS5003;50547;49.498;0.092;2023-07-31T10:34:30;8;8;
64229;PMS5003;50547;49.498;0.092;2023-07-31T10:37:19;8;8;
64229;PMS5003;50547;49.498;0.092;2023-07-31T10:39:57;8;8;
64229;PMS5003;50547;49.498;0.092;2023-07-31T10:42:29;10;10;
64229;PMS5003;50547;49.498;0.092;2023-07-31T10:45:01;8;8;
64229;PMS5003;50547;49.498;0.092;2023-07-31T10:47:36;8;8;
64229;PMS5003;50547;49.498;0.092;2023-07-31T10:50:16;9;9;
64229;PMS5003;50547;49.498;0.092;2023-07-31T10:52:47;10;10;
64229;PMS5003;50547;49.498;0.092;2023-07-31T10:55:25;8;8;
64229;PMS5003;50547;49.498;0.092;2023-07-31T10:57:55;9;9;
64229;PMS5003;50547;49.498;0.092;2023-07-31T11:00:23;7;7;
64229;PMS5003;50547;49.498;0.092;2023-07-31T11:02:59;7;7;
64229;PMS5003;50547;49.498;0.092;2023-07-31T11:05:46;9;9;
64229;PMS5003;50547;49.498;0.092;2023-07-31T11:08:17;9;9;
64229;PMS5003;50547;49.498;0.092;2023-07-31T11:10:48;8;8;
64229;PMS5003;50547;49.498;0.092;2023-07-31T11:13:19;8;8;
64229;PMS5003;50547;49.498;0.092;2023-07-31T11:16:12;8;8;
64229;PMS5003;50547;49.498;0.092;2023-07-31T11:18:42;8;8;
64229;PMS5003;50547;49.498;0.092;2023-07-31T11:21:14;8;8;
64229;PMS5003;50547;49.498;0.092;2023-07-31T11:23:45;8;8;
64229;PMS5003;50547;49.498;0.092;2023-07-31T11:26:15;8;8;
64229;PMS5003;50547;49.498;0.092;2023-07-31T11:28:46;8;8;
64229;PMS5003;50547;49.498;0.092;2023-07-31T11:31:17;7;7;
64229;PMS5003;50547;49.498;0.092;2023-07-31T11:33:46;7;7;
64229;PMS5003;50547;49.498;0.092;2023-07-31T11:36:16;7;7;
64229;PMS5003;50547;49.498;0.092;2023-07-31T11:38:46;8;8;
64229;PMS5003;50547;49.498;0.092;2023-07-31T11:41:16;7;7;
64229;PMS5003;50547;49.498;0.092;2023-07-31T11:43:45;7;7;
64229;PMS5003;50547;49.498;0.092;2023-07-31T11:46:12;8;8;
64229;PMS5003;50547;49.498;0.092;2023-07-31T11:48:42;8;8;
64229;PMS5003;50547;49.498;0.092;2023-07-31T11:51:12;7;7;
64229;PMS5003;50547;49.498;0.092;2023-07-31T11:53:43;8;8;
64229;PMS5003;50547;49.498;0.092;2023-07-31T11:56:16;8;8;
64229;PMS5003;50547;49.498;0.092;2023-07-31T11:58:48;7;7;
64229;PMS5003;50547;49.498;0.092;2023-07-31T12:01:21;8;8;
64229;PMS5003;50547;49.498;0.092;2023-07-31T12:03:49;9;9;
64229;PMS5003;50547;49.498;0.092;2023-07-31T12:06:19;8;8;
64229;PMS5003;50547;49.498;0.092;2023-07-31T12:08:49;8;8;
64229;PMS5003;50547;49.498;0.092;2023-07-31T12:11:18;9;9;
64229;PMS5003;50547;49.498;0.092;2023-07-31T12:13:47;8;8;
64229;PMS5003;50547;49.498;0.092;2023-07-31T12:16:16;8;8;
64229;PMS5003;50547;49.498;0.092;2023-07-31T12:18:45;8;8;
64229;PMS5003;50547;49.498;0.092;2023-07-31T12:21:18;9;9;
64229;PMS5003;50547;49.498;0.092;2023-07-31T12:23:48;8;8;
64229;PMS5003;50547;49.498;0.092;2023-07-31T12:26:17;8;8;
64229;PMS5003;50547;49.498;0.092;2023-07-31T12:28:47;7;7;
64229;PMS5003;50547;49.498;0.092;2023-07-31T12:31:20;8;8;
64229;PMS5003;50547;49.498;0.092;2023-07-31T12:33:50;7;7;
64229;PMS5003;50547;49.498;0.092;2023-07-31T12:36:20;8;8;
64229;PMS5003;50547;49.498;0.092;2023-07-31T12:38:51;7;7;
64229;PMS5003;50547;49.498;0.092;2023-07-31T12:41:21;7;7;
64229;PMS5003;50547;49.498;0.092;2023-07-31T12:43:50;7;7;
64229;PMS5003;50547;49.498;0.092;2023-07-31T12:46:19;8;8;
64229;PMS5003;50547;49.498;0.092;2023-07-31T12:48:48;7;7;
64229;PMS5003;50547;49.498;0.092;2023-07-31T12:51:17;6;6;
64229;PMS5003;50547;49.498;0.092;2023-07-31T12:53:46;7;7;
64229;PMS5003;50547;49.498;0.092;2023-07-31T12:56:15;7;7;
64229;PMS5003;50547;49.498;0.092;2023-07-31T12:58:45;7;7;
64229;PMS5003;50547;49.498;0.092;2023-07-31T13:01:14;9;9;
64229;PMS5003;50547;49.498;0.092;2023-07-31T13:03:43;7;7;
64229;PMS5003;50547;49.498;0.092;2023-07-31T13:06:12;7;7;
64229;PMS5003;50547;49.498;0.092;2023-07-31T13:08:41;7;7;
64229;PMS5003;50547;49.498;0.092;2023-07-31T13:11:10;6;6;
64229;PMS5003;50547;49.498;0.092;2023-07-31T13:13:39;7;7;
64229;PMS5003;50547;49.498;0.092;2023-07-31T13:16:08;8;8;
64229;PMS5003;50547;49.498;0.092;2023-07-31T13:18:38;8;8;
64229;PMS5003;50547;49.498;0.092;2023-07-31T13:21:07;8;8;
64229;PMS5003;50547;49.498;0.092;2023-07-31T13:23:36;8;8;
64229;PMS5003;50547;49.498;0.092;2023-07-31T13:26:05;7;7;
64229;PMS5003;50547;49.498;0.092;2023-07-31T13:28:34;7;7;
64229;PMS5003;50547;49.498;0.092;2023-07-31T13:31:03;8;8;
64229;PMS5003;50547;49.498;0.092;2023-07-31T13:33:32;8;8;
64229;PMS5003;50547;49.498;0.092;2023-07-31T13:36:02;9;9;
64229;PMS5003;50547;49.498;0.092;2023-07-31T13:38:31;8;8;
64229;PMS5003;50547;49.498;0.092;2023-07-31T13:41:00;9;9;
64229;PMS5003;50547;49.498;0.092;2023-07-31T13:43:29;9;9;
64229;PMS5003;50547;49.498;0.092;2023-07-31T13:45:58;10;10;
64229;PMS5003;50547;49.498;0.092;2023-07-31T13:48:27;10;10;
64229;PMS5003;50547;49.498;0.092;2023-07-31T13:50:56;10;10;
64229;PMS5003;50547;49.498;0.092;2023-07-31T13:53:25;10;10;
64229;PMS5003;50547;49.498;0.092;2023-07-31T13:55:55;9;9;
64229;PMS5003;50547;49.498;0.092;2023-07-31T13:58:24;9;9;
64229;PMS5003;50547;49.498;0.092;2023-07-31T14:00:53;9;9;
64229;PMS5003;50547;49.498;0.092;2023-07-31T14:03:22;10;10;
64229;PMS5003;50547;49.498;0.092;2023-07-31T14:05:52;10;10;
64229;PMS5003;50547;49.498;0.092;2023-07-31T14:08:21;10;10;
64229;PMS5003;50547;49.498;0.092;2023-07-31T14:10:50;10;10;
64229;PMS5003;50547;49.498;0.092;2023-07-31T14:13:19;10;10;
64229;PMS5003;50547;49.498;0.092;2023-07-31T14:15:48;10;10;
64229;PMS5003;50547;49.498;0.092;2023-07-31T14:18:17;10;10;
64229;PMS5003;50547;49.498;0.092;2023-07-31T14:20:46;11;11;
64229;PMS5003;50547;49.498;0.092;2023-07-31T14:23:16;10;10;
64229;PMS5003;50547;49.498;0.092;2023-07-31T14:25:45;10;10;
64229;PMS5003;50547;49.498;0.092;2023-07-31T14:28:14;10;10;
64229;PMS5003;50547;49.498;0.092;2023-07-31T14:30:43;10;10;
64229;PMS5003;50547;49.498;0.092;2023-07-31T14:33:12;10;10;
64229;PMS5003;50547;49.498;0.092;2023-07-31T14:35:41;10;10;
64229;PMS5003;50547;49.498;0.092;2023-07-31T14:38:10;9;9;
64229;PMS5003;50547;49.498;0.092;2023-07-31T14:40:40;10;10;
64229;PMS5003;50547;49.498;0.092;2023-07-31T14:43:10;8;8;
64229;PMS5003;50547;49.498;0.092;2023-07-31T14:45:39;10;10;
64229;PMS5003;50547;49.498;0.092;2023-07-31T14:48:08;10;10;
64229;PMS5003;50547;49.498;0.092;2023-07-31T14:50:37;11;11;
64229;PMS5003;50547;49.498;0.092;2023-07-31T14:53:07;11;11;
64229;PMS5003;50547;49.498;0.092;2023-07-31T14:55:36;10;10;
64229;PMS5003;50547;49.498;0.092;2023-07-31T14:58:06;10;10;
64229;PMS5003;50547;49.498;0.092;2023-07-31T15:00:35;10;10;
64229;PMS5003;50547;49.498;0.092;2023-07-31T15:03:04;10;10;
64229;PMS5003;50547;49.498;0.092;2023-07-31T15:05:33;11;11;
64229;PMS5003;50547;49.498;0.092;2023-07-31T15:08:02;9;9;
64229;PMS5003;50547;49.498;0.092;2023-07-31T15:10:31;10;10;
64229;PMS5003;50547;49.498;0.092;2023-07-31T15:13:01;11;11;
64229;PMS5003;50547;49.498;0.092;2023-07-31T15:15:30;10;10;
64229;PMS5003;50547;49.498;0.092;2023-07-31T15:17:59;10;10;
64229;PMS5003;50547;49.498;0.092;2023-07-31T15:20:28;11;11;
64229;PMS5003;50547;49.498;0.092;2023-07-31T15:22:57;10;10;
64229;PMS5003;50547;49.498;0.092;2023-07-31T15:25:26;10;10;
64229;PMS5003;50547;49.498;0.092;2023-07-31T15:27:56;10;10;
64229;PMS5003;50547;49.498;0.092;2023-07-31T15:30:25;11;11;
64229;PMS5003;50547;49.498;0.092;2023-07-31T15:32:54;11;11;
64229;PMS5003;50547;49.498;0.092;2023-07-31T15:35:23;11;11;
64229;PMS5003;50547;49.498;0.092;2023-07-31T15:37:52;10;10;
64229;PMS5003;50547;49.498;0.092;2023-07-31T15:40:21;10;10;
64229;PMS5003;50547;49.498;0.092;2023-07-31T15:42:51;10;10;
64229;PMS5003;50547;49.498;0.092;2023-07-31T15:45:20;10;10;
64229;PMS5003;50547;49.498;0.092;2023-07-31T15:47:49;10;10;
64229;PMS5003;50547;49.498;0.092;2023-07-31T15:50:18;10;10;
64229;PMS5003;50547;49.498;0.092;2023-07-31T15:52:47;10;10;
64229;PMS5003;50547;49.498;0.092;2023-07-31T15:55:17;10;10;
64229;PMS5003;50547;49.498;0.092;2023-07-31T15:57:43;8;8;
64229;PMS5003;50547;49.498;0.092;2023-07-31T16:00:12;8;8;
64229;PMS5003;50547;49.498;0.092;2023-07-31T16:02:41;7;7;
64229;PMS5003;50547;49.498;0.092;2023-07-31T16:05:11;8;8;
64229;PMS5003;50547;49.498;0.092;2023-07-31T16:07:40;7;7;
64229;PMS5003;50547;49.498;0.092;2023-07-31T16:10:09;8;8;
64229;PMS5003;50547;49.498;0.092;2023-07-31T16:12:35;8;8;
64229;PMS5003;50547;49.498;0.092;2023-07-31T16:15:04;7;7;
64229;PMS5003;50547;49.498;0.092;2023-07-31T16:17:31;8;8;
64229;PMS5003;50547;49.498;0.092;2023-07-31T16:20:00;7;7;
64229;PMS5003;50547;49.498;0.092;2023-07-31T16:22:29;7;7;
64229;PMS5003;50547;49.498;0.092;2023-07-31T16:24:55;8;8;
64229;PMS5003;50547;49.498;0.092;2023-07-31T16:27:24;7;7;
64229;PMS5003;50547;49.498;0.092;2023-07-31T16:29:53;8;8;
64229;PMS5003;50547;49.498;0.092;2023-07-31T16:32:28;7;7;
64229;PMS5003;50547;49.498;0.092;2023-07-31T16:34:57;7;7;
64229;PMS5003;50547;49.498;0.092;2023-07-31T16:37:23;7;7;
64229;PMS5003;50547;49.498;0.092;2023-07-31T16:39:52;7;7;
64229;PMS5003;50547;49.498;0.092;2023-07-31T16:42:21;6;6;
64229;PMS5003;50547;49.498;0.092;2023-07-31T16:44:51;5;5;